sensor_id;sensor_type;location;lat;lon;timestamp;pressure;altitude;pressure_sealevel;temperature;humidity
18697;BME280;22617;43.690;27.956;2023-07-31T00:02:14;98184.56;;;20.06;95.33
18697;BME280;22617;43.690;27.956;2023-07-31T00:07:18;98199.84;;;20.17;94.88
18697;BME280;22617;43.690;27.956;2023-07-31T00:12:22;98188.16;;;20.21;95.00
18697;BME280;22617;43.690;27.956;2023-07-31T00:17:27;98194.81;;;20.12;94.75
18697;BME280;22617;43.690;27.956;2023-07-31T00:22:31;98195.81;;;20.10;94.92
18697;BME280;22617;43.690;27.956;2023-07-31T00:27:34;98196.69;;;20.26;95.21
18697;BME280;22617;43.690;27.956;2023-07-31T00:32:40;98192.81;;;20.33;93.69
18697;BME280;22617;43.690;27.956;2023-07-31T00:37:44;98185.16;;;20.27;93.98
18697;BME280;22617;43.690;27.956;2023-07-31T00:42:48;98195.88;;;20.41;94.02
18697;BME280;22617;43.690;27.956;2023-07-31T00:47:53;98194.94;;;20.42;92.86
18697;BME280;22617;43.690;27.956;2023-07-31T00:52:59;98197.72;;;20.39;92.95
18697;BME280;22617;43.690;27.956;2023-07-31T00:58:02;98197.06;;;20.35;93.10
18697;BME280;22617;43.690;27.956;2023-07-31T01:03:08;98200.75;;;20.33;92.45
18697;BME280;22617;43.690;27.956;2023-07-31T01:08:15;98196.97;;;20.37;92.37
18697;BME280;22617;43.690;27.956;2023-07-31T01:13:22;98197.66;;;20.40;92.32
18697;BME280;22617;43.690;27.956;2023-07-31T01:18:28;98201.41;;;20.36;91.78
18697;BME280;22617;43.690;27.956;2023-07-31T01:23:58;98194.97;;;20.25;92.87
18697;BME280;22617;43.690;27.956;2023-07-31T01:29:17;98191.31;;;20.12;93.02
18697;BME280;22617;43.690;27.956;2023-07-31T01:34:23;98188.66;;;20.12;93.25
18697;BME280;22617;43.690;27.956;2023-07-31T01:39:28;98202.69;;;20.14;93.38
18697;BME280;22617;43.690;27.956;2023-07-31T01:44:33;98210.25;;;20.20;93.58
18697;BME280;22617;43.690;27.956;2023-07-31T01:49:38;98243.09;;;20.00;93.92
18697;BME280;22617;43.690;27.956;2023-07-31T01:54:42;98233.53;;;19.97;93.80
18697;BME280;22617;43.690;27.956;2023-07-31T01:59:47;98204.53;;;19.80;94.41
18697;BME280;22617;43.690;27.956;2023-07-31T02:04:50;98230.63;;;19.86;96.00
18697;BME280;22617;43.690;27.956;2023-07-31T02:09:54;98249.91;;;19.88;95.36
18697;BME280;22617;43.690;27.956;2023-07-31T02:14:59;98240.56;;;19.98;94.78
18697;BME280;22617;43.690;27.956;2023-07-31T02:20:07;98250.81;;;20.05;94.15
18697;BME280;22617;43.690;27.956;2023-07-31T02:25:11;98234.47;;;19.96;93.89
18697;BME280;22617;43.690;27.956;2023-07-31T02:30:16;98219.66;;;19.77;95.10
18697;BME280;22617;43.690;27.956;2023-07-31T02:35:20;98218.44;;;19.67;97.03
18697;BME280;22617;43.690;27.956;2023-07-31T02:40:23;98229.25;;;19.79;97.24
18697;BME280;22617;43.690;27.956;2023-07-31T02:45:28;98231.31;;;20.06;95.97
18697;BME280;22617;43.690;27.956;2023-07-31T02:50:32;98230.00;;;20.14;94.20
18697;BME280;22617;43.690;27.956;2023-07-31T02:55:35;98244.91;;;20.15;92.28
18697;BME280;22617;43.690;27.956;2023-07-31T03:00:43;98247.41;;;20.18;92.92
18697;BME280;22617;43.690;27.956;2023-07-31T03:05:47;98259.09;;;20.14;92.13
18697;BME280;22617;43.690;27.956;2023-07-31T03:10:50;98246.63;;;20.16;92.21
18697;BME280;22617;43.690;27.956;2023-07-31T03:15:55;98254.53;;;20.00;92.43
18697;BME280;22617;43.690;27.956;2023-07-31T03:20:59;98249.09;;;20.03;93.24
18697;BME280;22617;43.690;27.956;2023-07-31T03:26:05;98247.38;;;20.02;92.12
18697;BME280;22617;43.690;27.956;2023-07-31T03:31:11;98252.50;;;20.06;92.16
18697;BME280;22617;43.690;27.956;2023-07-31T03:36:14;98248.25;;;20.03;92.45
18697;BME280;22617;43.690;27.956;2023-07-31T03:41:18;98247.38;;;20.02;93.05
18697;BME280;22617;43.690;27.956;2023-07-31T03:46:23;98237.91;;;19.98;93.09
18697;BME280;22617;43.690;27.956;2023-07-31T03:51:27;98243.44;;;20.10;92.81
18697;BME280;22617;43.690;27.956;2023-07-31T03:56:31;98243.03;;;20.17;92.22
18697;BME280;22617;43.690;27.956;2023-07-31T04:01:38;98248.88;;;20.39;91.32
18697;BME280;22617;43.690;27.956;2023-07-31T04:06:42;98245.13;;;20.59;89.85
18697;BME280;22617;43.690;27.956;2023-07-31T04:11:45;98253.06;;;20.75;89.15
18697;BME280;22617;43.690;27.956;2023-07-31T04:16:51;98251.59;;;20.85;87.94
18697;BME280;22617;43.690;27.956;2023-07-31T04:21:55;98253.69;;;21.10;86.45
18697;BME280;22617;43.690;27.956;2023-07-31T04:26:59;98264.63;;;21.19;85.77
18697;BME280;22617;43.690;27.956;2023-07-31T04:32:04;98259.81;;;21.26;84.95
18697;BME280;22617;43.690;27.956;2023-07-31T04:37:08;98262.88;;;21.34;83.82
18697;BME280;22617;43.690;27.956;2023-07-31T04:42:11;98272.75;;;21.46;82.87
18697;BME280;22617;43.690;27.956;2023-07-31T04:47:16;98279.88;;;21.60;82.54
18697;BME280;22617;43.690;27.956;2023-07-31T04:52:20;98285.47;;;21.69;81.78
18697;BME280;22617;43.690;27.956;2023-07-31T04:57:23;98280.00;;;21.72;81.66
18697;BME280;22617;43.690;27.956;2023-07-31T05:02:28;98280.00;;;21.72;80.35
18697;BME280;22617;43.690;27.956;2023-07-31T05:07:32;98280.28;;;21.82;79.55
18697;BME280;22617;43.690;27.956;2023-07-31T05:12:35;98280.94;;;21.86;78.35
18697;BME280;22617;43.690;27.956;2023-07-31T05:17:40;98285.19;;;21.88;77.20
18697;BME280;22617;43.690;27.956;2023-07-31T05:22:44;98285.03;;;21.77;77.50
18697;BME280;22617;43.690;27.956;2023-07-31T05:27:47;98287.75;;;21.75;77.69
18697;BME280;22617;43.690;27.956;2023-07-31T05:32:52;98290.91;;;21.82;77.45
18697;BME280;22617;43.690;27.956;2023-07-31T05:37:56;98293.19;;;22.02;77.12
18697;BME280;22617;43.690;27.956;2023-07-31T05:42:59;98305.34;;;22.35;75.54
18697;BME280;22617;43.690;27.956;2023-07-31T05:48:04;98303.28;;;22.67;74.85
18697;BME280;22617;43.690;27.956;2023-07-31T05:53:08;98297.38;;;22.90;72.82
18697;BME280;22617;43.690;27.956;2023-07-31T05:58:12;98305.78;;;23.23;72.89
18697;BME280;22617;43.690;27.956;2023-07-31T06:03:17;98295.44;;;23.45;72.06
18697;BME280;22617;43.690;27.956;2023-07-31T06:08:20;98300.91;;;23.57;70.99
18697;BME280;22617;43.690;27.956;2023-07-31T06:13:24;98301.03;;;24.06;69.97
18697;BME280;22617;43.690;27.956;2023-07-31T06:18:29;98305.09;;;24.24;69.26
18697;BME280;22617;43.690;27.956;2023-07-31T06:23:32;98316.00;;;24.21;69.17
18697;BME280;22617;43.690;27.956;2023-07-31T06:28:36;98313.59;;;24.42;68.24
18697;BME280;22617;43.690;27.956;2023-07-31T06:33:41;98309.38;;;24.75;67.73
18697;BME280;22617;43.690;27.956;2023-07-31T06:38:45;98314.88;;;24.85;67.01
18697;BME280;22617;43.690;27.956;2023-07-31T06:43:48;98319.13;;;24.64;67.27
18697;BME280;22617;43.690;27.956;2023-07-31T06:48:53;98320.44;;;24.46;67.84
18697;BME280;22617;43.690;27.956;2023-07-31T06:53:57;98330.13;;;24.09;68.73
18697;BME280;22617;43.690;27.956;2023-07-31T06:59:00;98325.31;;;24.14;69.32
18697;BME280;22617;43.690;27.956;2023-07-31T07:04:05;98321.53;;;24.30;68.46
18697;BME280;22617;43.690;27.956;2023-07-31T07:09:09;98316.78;;;24.47;67.31
18697;BME280;22617;43.690;27.956;2023-07-31T07:14:12;98322.88;;;24.85;67.45
18697;BME280;22617;43.690;27.956;2023-07-31T07:19:17;98323.78;;;25.09;66.70
18697;BME280;22617;43.690;27.956;2023-07-31T07:24:21;98323.66;;;25.58;65.18
18697;BME280;22617;43.690;27.956;2023-07-31T07:29:24;98332.53;;;25.11;65.59
18697;BME280;22617;43.690;27.956;2023-07-31T07:34:29;98331.91;;;25.32;65.91
18697;BME280;22617;43.690;27.956;2023-07-31T07:39:33;98328.25;;;25.33;66.37
18697;BME280;22617;43.690;27.956;2023-07-31T07:44:36;98338.72;;;25.12;65.80
18697;BME280;22617;43.690;27.956;2023-07-31T07:49:41;98339.97;;;25.19;66.35
18697;BME280;22617;43.690;27.956;2023-07-31T07:54:51;98334.66;;;25.78;64.38
18697;BME280;22617;43.690;27.956;2023-07-31T07:59:55;98329.03;;;26.38;62.75
18697;BME280;22617;43.690;27.956;2023-07-31T08:05:00;98339.03;;;26.69;62.26
18697;BME280;22617;43.690;27.956;2023-07-31T08:10:05;98340.25;;;26.65;60.57
18697;BME280;22617;43.690;27.956;2023-07-31T08:15:09;98351.91;;;26.53;61.26
18697;BME280;22617;43.690;27.956;2023-07-31T08:20:14;98356.28;;;26.32;62.45
18697;BME280;22617;43.690;27.956;2023-07-31T08:25:18;98349.72;;;26.36;62.28
18697;BME280;22617;43.690;27.956;2023-07-31T08:30:22;98342.44;;;26.60;60.87
18697;BME280;22617;43.690;27.956;2023-07-31T08:35:27;98349.72;;;26.47;61.50
18697;BME280;22617;43.690;27.956;2023-07-31T08:40:31;98351.31;;;26.61;62.16
18697;BME280;22617;43.690;27.956;2023-07-31T08:45:35;98359.19;;;26.73;61.73
18697;BME280;22617;43.690;27.956;2023-07-31T08:50:40;98367.22;;;26.40;62.60
18697;BME280;22617;43.690;27.956;2023-07-31T08:55:44;98373.41;;;26.40;62.42
18697;BME280;22617;43.690;27.956;2023-07-31T09:00:48;98368.19;;;25.93;63.72
18697;BME280;22617;43.690;27.956;2023-07-31T09:05:57;98370.72;;;25.83;64.07
18697;BME280;22617;43.690;27.956;2023-07-31T09:11:02;98371.88;;;25.21;65.83
18697;BME280;22617;43.690;27.956;2023-07-31T09:16:08;98374.75;;;24.68;67.00
18697;BME280;22617;43.690;27.956;2023-07-31T09:21:13;98379.88;;;24.59;67.18
18697;BME280;22617;43.690;27.956;2023-07-31T09:26:29;98390.97;;;24.53;68.03
18697;BME280;22617;43.690;27.956;2023-07-31T09:31:38;98397.50;;;24.36;65.09
18697;BME280;22617;43.690;27.956;2023-07-31T09:36:44;98400.13;;;24.23;66.10
18697;BME280;22617;43.690;27.956;2023-07-31T09:41:54;98408.72;;;24.14;65.81
18697;BME280;22617;43.690;27.956;2023-07-31T09:46:58;98424.03;;;23.98;66.39
18697;BME280;22617;43.690;27.956;2023-07-31T09:52:11;98425.38;;;23.25;68.05
18697;BME280;22617;43.690;27.956;2023-07-31T09:57:17;98418.25;;;23.25;69.08
18697;BME280;22617;43.690;27.956;2023-07-31T10:02:22;98423.91;;;23.33;68.58
18697;BME280;22617;43.690;27.956;2023-07-31T10:07:30;98417.34;;;23.66;68.63
18697;BME280;22617;43.690;27.956;2023-07-31T10:12:34;98419.41;;;23.21;69.51
18697;BME280;22617;43.690;27.956;2023-07-31T10:17:38;98416.88;;;23.32;69.86
18697;BME280;22617;43.690;27.956;2023-07-31T10:22:43;98415.91;;;23.48;69.31
18697;BME280;22617;43.690;27.956;2023-07-31T10:27:49;98414.66;;;23.53;69.24
18697;BME280;22617;43.690;27.956;2023-07-31T10:32:53;98416.88;;;23.32;70.46
18697;BME280;22617;43.690;27.956;2023-07-31T10:38:09;98409.59;;;23.63;69.68
18697;BME280;22617;43.690;27.956;2023-07-31T10:43:24;98414.28;;;24.11;69.25
18697;BME280;22617;43.690;27.956;2023-07-31T10:48:33;98417.50;;;24.16;68.72
18697;BME280;22617;43.690;27.956;2023-07-31T10:53:40;98410.28;;;24.31;68.57
18697;BME280;22617;43.690;27.956;2023-07-31T10:58:44;98406.94;;;24.27;68.18
18697;BME280;22617;43.690;27.956;2023-07-31T11:03:49;98404.34;;;23.88;69.61
18697;BME280;22617;43.690;27.956;2023-07-31T11:08:56;98395.09;;;24.06;68.56
18697;BME280;22617;43.690;27.956;2023-07-31T11:13:59;98385.19;;;23.96;69.69
18697;BME280;22617;43.690;27.956;2023-07-31T11:19:08;98384.50;;;24.31;69.32
18697;BME280;22617;43.690;27.956;2023-07-31T11:24:13;98381.59;;;24.60;68.46
18697;BME280;22617;43.690;27.956;2023-07-31T11:29:17;98369.00;;;24.62;68.76
18697;BME280;22617;43.690;27.956;2023-07-31T11:34:20;98361.75;;;24.64;68.32
18697;BME280;22617;43.690;27.956;2023-07-31T11:39:25;98361.28;;;24.70;68.42
18697;BME280;22617;43.690;27.956;2023-07-31T11:44:38;98359.81;;;24.66;68.15
18697;BME280;22617;43.690;27.956;2023-07-31T11:49:41;98356.34;;;24.40;68.39
18697;BME280;22617;43.690;27.956;2023-07-31T11:54:46;98359.78;;;24.29;69.68
18697;BME280;22617;43.690;27.956;2023-07-31T11:59:50;98353.25;;;24.33;70.10
18697;BME280;22617;43.690;27.956;2023-07-31T12:04:55;98356.44;;;24.01;70.59
18697;BME280;22617;43.690;27.956;2023-07-31T12:10:00;98361.75;;;23.88;71.61
18697;BME280;22617;43.690;27.956;2023-07-31T12:15:14;98354.38;;;23.79;73.39
18697;BME280;22617;43.690;27.956;2023-07-31T12:20:20;98359.44;;;23.57;73.99
18697;BME280;22617;43.690;27.956;2023-07-31T12:25:28;98361.94;;;23.45;74.51
18697;BME280;22617;43.690;27.956;2023-07-31T12:30:33;98345.34;;;23.15;75.46
18697;BME280;22617;43.690;27.956;2023-07-31T12:35:38;98349.69;;;22.89;76.03
18697;BME280;22617;43.690;27.956;2023-07-31T12:40:45;98343.72;;;22.86;77.77
18697;BME280;22617;43.690;27.956;2023-07-31T12:45:48;98335.44;;;22.90;78.34
18697;BME280;22617;43.690;27.956;2023-07-31T12:50:52;98328.66;;;22.99;78.55
18697;BME280;22617;43.690;27.956;2023-07-31T12:55:57;98322.03;;;23.06;79.16
18697;BME280;22617;43.690;27.956;2023-07-31T13:01:01;98334.44;;;23.06;77.63
18697;BME280;22617;43.690;27.956;2023-07-31T13:06:04;98323.69;;;23.21;78.23
18697;BME280;22617;43.690;27.956;2023-07-31T13:11:10;98323.69;;;23.07;78.00
18697;BME280;22617;43.690;27.956;2023-07-31T13:16:13;98319.22;;;23.08;79.27
18697;BME280;22617;43.690;27.956;2023-07-31T13:21:17;98325.91;;;23.27;80.21
18697;BME280;22617;43.690;27.956;2023-07-31T13:26:22;98331.09;;;23.16;78.80
18697;BME280;22617;43.690;27.956;2023-07-31T13:31:25;98341.31;;;23.22;79.71
18697;BME280;22617;43.690;27.956;2023-07-31T13:36:30;98334.44;;;23.32;79.93
18697;BME280;22617;43.690;27.956;2023-07-31T13:41:35;98341.13;;;23.25;79.76
18697;BME280;22617;43.690;27.956;2023-07-31T13:46:39;98329.88;;;23.34;80.10
18697;BME280;22617;43.690;27.956;2023-07-31T13:51:43;98331.84;;;23.18;78.49
18697;BME280;22617;43.690;27.956;2023-07-31T13:56:48;98326.44;;;23.20;77.89
18697;BME280;22617;43.690;27.956;2023-07-31T14:01:51;98334.44;;;23.32;77.14
18697;BME280;22617;43.690;27.956;2023-07-31T14:06:56;98336.59;;;23.13;78.44
18697;BME280;22617;43.690;27.956;2023-07-31T14:12:01;98334.75;;;23.28;79.07
18697;BME280;22617;43.690;27.956;2023-07-31T14:17:05;98321.47;;;23.55;77.56
18697;BME280;22617;43.690;27.956;2023-07-31T14:22:09;98321.91;;;23.74;76.28
18697;BME280;22617;43.690;27.956;2023-07-31T14:27:14;98342.53;;;23.70;75.90
18697;BME280;22617;43.690;27.956;2023-07-31T14:32:18;98328.50;;;23.94;76.07
18697;BME280;22617;43.690;27.956;2023-07-31T14:37:21;98334.91;;;23.78;75.29
18697;BME280;22617;43.690;27.956;2023-07-31T14:42:26;98328.19;;;23.85;74.96
18697;BME280;22617;43.690;27.956;2023-07-31T14:47:30;98313.41;;;24.07;74.62
18697;BME280;22617;43.690;27.956;2023-07-31T14:52:34;98308.19;;;24.30;71.86
18697;BME280;22617;43.690;27.956;2023-07-31T14:57:39;98307.00;;;23.97;72.82
18697;BME280;22617;43.690;27.956;2023-07-31T15:02:43;98296.78;;;24.03;71.85
18697;BME280;22617;43.690;27.956;2023-07-31T15:07:46;98300.41;;;23.89;73.00
18697;BME280;22617;43.690;27.956;2023-07-31T15:12:51;98295.59;;;23.95;71.96
18697;BME280;22617;43.690;27.956;2023-07-31T15:17:55;98292.75;;;23.98;72.74
18697;BME280;22617;43.690;27.956;2023-07-31T15:22:58;98294.56;;;24.22;71.54
18697;BME280;22617;43.690;27.956;2023-07-31T15:28:04;98287.09;;;24.40;71.25
18697;BME280;22617;43.690;27.956;2023-07-31T15:33:09;98303.41;;;24.36;71.02
18697;BME280;22617;43.690;27.956;2023-07-31T15:38:12;98290.59;;;24.28;71.82
18697;BME280;22617;43.690;27.956;2023-07-31T15:43:18;98289.13;;;24.11;72.08
18697;BME280;22617;43.690;27.956;2023-07-31T15:48:22;98292.63;;;24.12;72.02
18697;BME280;22617;43.690;27.956;2023-07-31T15:53:26;98270.66;;;24.08;72.58
18697;BME280;22617;43.690;27.956;2023-07-31T15:58:31;98271.56;;;24.21;72.69
18697;BME280;22617;43.690;27.956;2023-07-31T16:03:34;98281.03;;;24.25;71.83
18697;BME280;22617;43.690;27.956;2023-07-31T16:08:38;98298.59;;;24.15;72.04
18697;BME280;22617;43.690;27.956;2023-07-31T16:13:45;98304.00;;;24.14;71.24
18697;BME280;22617;43.690;27.956;2023-07-31T16:18:48;98291.88;;;24.10;70.81
18697;BME280;22617;43.690;27.956;2023-07-31T16:23:52;98297.19;;;24.10;71.42
18697;BME280;22617;43.690;27.956;2023-07-31T16:28:57;98286.88;;;24.05;71.67
18697;BME280;22617;43.690;27.956;2023-07-31T16:34:00;98302.97;;;23.91;71.21
18697;BME280;22617;43.690;27.956;2023-07-31T16:39:04;98306.25;;;23.82;72.01
18697;BME280;22617;43.690;27.956;2023-07-31T16:44:09;98300.41;;;23.77;71.74
18697;BME280;22617;43.690;27.956;2023-07-31T16:49:16;98303.47;;;23.71;71.92
18697;BME280;22617;43.690;27.956;2023-07-31T16:54:20;98307.09;;;23.70;72.25
18697;BME280;22617;43.690;27.956;2023-07-31T16:59:25;98304.09;;;23.62;72.28
18697;BME280;22617;43.690;27.956;2023-07-31T17:04:30;98298.66;;;23.51;72.20
18697;BME280;22617;43.690;27.956;2023-07-31T17:09:34;98307.97;;;23.43;72.35
18697;BME280;22617;43.690;27.956;2023-07-31T17:14:39;98310.72;;;23.29;72.85
18697;BME280;22617;43.690;27.956;2023-07-31T17:19:42;98323.47;;;23.24;73.80
18697;BME280;22617;43.690;27.956;2023-07-31T17:24:46;98322.50;;;23.25;73.13
18697;BME280;22617;43.690;27.956;2023-07-31T17:29:51;98337.38;;;23.15;73.74
18697;BME280;22617;43.690;27.956;2023-07-31T17:34:54;98331.88;;;23.04;74.08
18697;BME280;22617;43.690;27.956;2023-07-31T17:39:58;98333.34;;;22.95;74.19
18697;BME280;22617;43.690;27.956;2023-07-31T17:45:04;98340.19;;;22.85;74.91
18697;BME280;22617;43.690;27.956;2023-07-31T17:50:08;98350.75;;;22.58;75.67
18697;BME280;22617;43.690;27.956;2023-07-31T17:55:12;98351.22;;;22.37;77.00
18697;BME280;22617;43.690;27.956;2023-07-31T18:00:19;98355.13;;;22.45;76.78
18697;BME280;22617;43.690;27.956;2023-07-31T18:05:24;98363.78;;;22.35;76.67
18697;BME280;22617;43.690;27.956;2023-07-31T18:10:28;98372.56;;;22.21;77.32
18697;BME280;22617;43.690;27.956;2023-07-31T18:15:33;98370.94;;;22.04;78.11
18697;BME280;22617;43.690;27.956;2023-07-31T18:20:37;98374.69;;;21.86;78.84
18697;BME280;22617;43.690;27.956;2023-07-31T18:25:40;98373.34;;;21.63;78.55
18697;BME280;22617;43.690;27.956;2023-07-31T18:30:45;98375.06;;;21.64;79.30
18697;BME280;22617;43.690;27.956;2023-07-31T18:35:49;98380.19;;;21.53;79.93
18697;BME280;22617;43.690;27.956;2023-07-31T18:40:53;98375.56;;;21.41;79.54
18697;BME280;22617;43.690;27.956;2023-07-31T18:45:58;98375.16;;;21.33;80.19
18697;BME280;22617;43.690;27.956;2023-07-31T18:51:02;98386.56;;;21.19;81.74
18697;BME280;22617;43.690;27.956;2023-07-31T18:56:05;98386.91;;;21.13;81.05
18697;BME280;22617;43.690;27.956;2023-07-31T19:01:11;98397.88;;;21.06;81.93
18697;BME280;22617;43.690;27.956;2023-07-31T19:06:15;98402.81;;;21.13;81.06
18697;BME280;22617;43.690;27.956;2023-07-31T19:11:19;98393.53;;;21.05;81.78
18697;BME280;22617;43.690;27.956;2023-07-31T19:16:35;98398.91;;;21.03;80.83
18697;BME280;22617;43.690;27.956;2023-07-31T19:21:39;98396.94;;;20.75;81.00
18697;BME280;22617;43.690;27.956;2023-07-31T19:26:45;98391.22;;;20.83;81.83
18697;BME280;22617;43.690;27.956;2023-07-31T19:31:50;98403.81;;;20.95;80.94
18697;BME280;22617;43.690;27.956;2023-07-31T19:36:54;98405.34;;;20.99;80.81
18697;BME280;22617;43.690;27.956;2023-07-31T19:41:57;98399.69;;;20.89;80.30
18697;BME280;22617;43.690;27.956;2023-07-31T19:47:04;98412.34;;;20.84;80.43
18697;BME280;22617;43.690;27.956;2023-07-31T19:52:08;98410.34;;;20.72;80.60
18697;BME280;22617;43.690;27.956;2023-07-31T19:57:11;98419.13;;;20.57;81.22
18697;BME280;22617;43.690;27.956;2023-07-31T20:02:16;98419.28;;;20.54;81.62
18697;BME280;22617;43.690;27.956;2023-07-31T20:07:20;98411.94;;;20.59;81.53
18697;BME280;22617;43.690;27.956;2023-07-31T20:12:24;98409.63;;;20.53;81.47
18697;BME280;22617;43.690;27.956;2023-07-31T20:17:30;98417.66;;;20.52;81.72
18697;BME280;22617;43.690;27.956;2023-07-31T20:22:34;98421.50;;;20.46;81.29
18697;BME280;22617;43.690;27.956;2023-07-31T20:27:37;98416.69;;;20.37;81.43
18697;BME280;22617;43.690;27.956;2023-07-31T20:32:42;98424.00;;;20.32;81.62
18697;BME280;22617;43.690;27.956;2023-07-31T20:37:46;98418.56;;;20.00;81.02
18697;BME280;22617;43.690;27.956;2023-07-31T20:42:57;98419.78;;;19.76;83.21
18697;BME280;22617;43.690;27.956;2023-07-31T20:48:03;98420.91;;;19.89;82.87
18697;BME280;22617;43.690;27.956;2023-07-31T20:53:06;98416.88;;;19.99;82.89
18697;BME280;22617;43.690;27.956;2023-07-31T20:58:10;98418.94;;;20.10;82.29
18697;BME280;22617;43.690;27.956;2023-07-31T21:03:15;98426.81;;;19.94;82.71
18697;BME280;22617;43.690;27.956;2023-07-31T21:08:19;98418.41;;;19.69;82.90
18697;BME280;22617;43.690;27.956;2023-07-31T21:13:22;98424.47;;;19.71;83.40
18697;BME280;22617;43.690;27.956;2023-07-31T21:18:28;98424.25;;;19.76;83.24
18697;BME280;22617;43.690;27.956;2023-07-31T21:23:32;98427.75;;;19.93;83.20
18697;BME280;22617;43.690;27.956;2023-07-31T21:28:35;98412.56;;;19.97;82.24
18697;BME280;22617;43.690;27.956;2023-07-31T21:33:41;98415.16;;;19.98;81.67
18697;BME280;22617;43.690;27.956;2023-07-31T21:38:45;98415.16;;;19.98;81.46
18697;BME280;22617;43.690;27.956;2023-07-31T21:43:48;98412.66;;;19.78;82.79
18697;BME280;22617;43.690;27.956;2023-07-31T21:48:53;98418.81;;;19.79;84.23
18697;BME280;22617;43.690;27.956;2023-07-31T21:53:57;98411.25;;;19.88;84.15
18697;BME280;22617;43.690;27.956;2023-07-31T21:59:00;98398.22;;;19.85;82.86
18697;BME280;22617;43.690;27.956;2023-07-31T22:04:05;98411.81;;;19.78;84.38
18697;BME280;22617;43.690;27.956;2023-07-31T22:09:09;98414.22;;;19.82;84.33
18697;BME280;22617;43.690;27.956;2023-07-31T22:14:12;98399.97;;;19.68;84.77
18697;BME280;22617;43.690;27.956;2023-07-31T22:19:17;98402.00;;;19.63;85.27
18697;BME280;22617;43.690;27.956;2023-07-31T22:24:21;98395.53;;;19.68;85.05
18697;BME280;22617;43.690;27.956;2023-07-31T22:29:24;98386.75;;;19.68;84.04
18697;BME280;22617;43.690;27.956;2023-07-31T22:34:29;98377.91;;;19.51;84.25
18697;BME280;22617;43.690;27.956;2023-07-31T22:39:32;98384.94;;;19.15;85.48
18697;BME280;22617;43.690;27.956;2023-07-31T22:44:37;98386.38;;;19.22;86.63
18697;BME280;22617;43.690;27.956;2023-07-31T22:49:42;98373.41;;;19.35;86.84
18697;BME280;22617;43.690;27.956;2023-07-31T22:54:46;98365.75;;;19.29;85.81
18697;BME280;22617;43.690;27.956;2023-07-31T22:59:52;98368.91;;;19.37;86.19
18697;BME280;22617;43.690;27.956;2023-07-31T23:04:57;98356.50;;;19.20;86.30
18697;BME280;22617;43.690;27.956;2023-07-31T23:10:00;98359.50;;;19.31;86.37
18697;BME280;22617;43.690;27.956;2023-07-31T23:15:05;98354.13;;;19.33;85.68
18697;BME280;22617;43.690;27.956;2023-07-31T23:20:11;98348.66;;;19.18;84.86
18697;BME280;22617;43.690;27.956;2023-07-31T23:25:14;98353.53;;;19.09;84.44
18697;BME280;22617;43.690;27.956;2023-07-31T23:30:18;98357.41;;;19.02;85.23
18697;BME280;22617;43.690;27.956;2023-07-31T23:35:27;98359.91;;;18.86;84.58
18697;BME280;22617;43.690;27.956;2023-07-31T23:40:31;98363.25;;;18.90;86.31
18697;BME280;22617;43.690;27.956;2023-07-31T23:45:35;98354.25;;;19.12;85.51
18697;BME280;22617;43.690;27.956;2023-07-31T23:50:40;98366.63;;;19.29;84.42
18697;BME280;22617;43.690;27.956;2023-07-31T23:55:43;98355.34;;;19.26;83.51
